createdAt,value
2018-02-23T00:02:14.281Z,1.20
2018-02-23T00:04:42.426Z,1.10
2018-02-23T00:07:10.562Z,1.10
2018-02-23T00:09:38.714Z,1.00
2018-02-23T00:12:06.846Z,1.00
2018-02-23T00:14:35.130Z,1.00
2018-02-23T00:17:03.267Z,0.90
2018-02-23T00:19:32.196Z,0.90
2018-02-23T00:22:00.342Z,0.80
2018-02-23T00:24:28.489Z,0.90
2018-02-23T00:26:56.710Z,0.80
2018-02-23T00:29:24.842Z,0.70
2018-02-23T00:31:53.876Z,0.60
2018-02-23T00:34:22.712Z,0.60
2018-02-23T00:36:50.942Z,0.50
2018-02-23T00:39:19.094Z,0.40
2018-02-23T00:41:47.232Z,0.40
2018-02-23T00:44:15.454Z,0.30
2018-02-23T00:46:43.598Z,0.30
2018-02-23T00:49:12.534Z,0.20
2018-02-23T00:51:40.674Z,0.10
2018-02-23T00:54:08.810Z,0.10
2018-02-23T00:56:36.991Z,0.10
2018-02-23T00:59:05.126Z,0.00
2018-02-23T01:01:34.049Z,-0.10
2018-02-23T01:04:03.020Z,-0.20
2018-02-23T01:06:31.158Z,-0.20
2018-02-23T01:08:59.299Z,-0.20
2018-02-23T01:11:28.245Z,-0.30
2018-02-23T01:13:56.386Z,-0.30
2018-02-23T01:16:24.531Z,-0.40
2018-02-23T01:18:53.478Z,-0.50
2018-02-23T01:21:21.626Z,-0.50
2018-02-23T01:23:49.775Z,-0.50
2018-02-23T01:26:18.726Z,-0.60
2018-02-23T01:28:46.882Z,-0.60
2018-02-23T01:31:15.082Z,-0.60
2018-02-23T01:33:43.330Z,-0.60
2018-02-23T01:36:11.474Z,-0.60
2018-02-23T01:38:39.630Z,-0.70
2018-02-23T01:41:08.551Z,-0.70
2018-02-23T01:43:36.715Z,-0.70
2018-02-23T01:46:04.902Z,-0.70
2018-02-23T01:48:33.042Z,-0.70
2018-02-23T01:51:01.959Z,-0.70
2018-02-23T01:53:30.137Z,-0.80
2018-02-23T01:55:58.322Z,-0.80
2018-02-23T01:58:26.478Z,-0.80
2018-02-23T02:00:54.639Z,-0.80
2018-02-23T02:03:22.782Z,-0.90
2018-02-23T02:05:51.714Z,-1.00
2018-02-23T02:08:19.858Z,-1.00
2018-02-23T02:10:48.775Z,-1.00
2018-02-23T02:13:16.937Z,-1.00
2018-02-23T02:15:45.085Z,-1.10
2018-02-23T02:18:13.997Z,-1.10
2018-02-23T02:20:42.154Z,-1.20
2018-02-23T02:23:11.077Z,-1.20
2018-02-23T02:25:39.233Z,-1.20
2018-02-23T02:28:07.434Z,-1.20
2018-02-23T02:30:35.597Z,-1.30
2018-02-23T02:33:03.746Z,-1.30
2018-02-23T02:35:31.886Z,-1.30
2018-02-23T02:38:00.986Z,-1.40
2018-02-23T02:40:29.154Z,-1.40
2018-02-23T02:42:57.350Z,-1.40
2018-02-23T02:45:25.473Z,-1.40
2018-02-23T02:47:53.651Z,-1.50
2018-02-23T02:50:21.798Z,-1.50
2018-02-23T02:52:49.966Z,-1.50
2018-02-23T02:55:18.110Z,-1.50
2018-02-23T02:57:47.025Z,-1.60
2018-02-23T03:00:15.195Z,-1.60
2018-02-23T03:02:43.343Z,-1.60
2018-02-23T03:05:12.529Z,-1.60
2018-02-23T03:07:40.707Z,-1.60
2018-02-23T03:10:09.643Z,-1.70
2018-02-23T03:12:37.787Z,-1.70
2018-02-23T03:15:05.961Z,-1.70
2018-02-23T03:17:34.107Z,-1.80
2018-02-23T03:20:02.333Z,-1.80
2018-02-23T03:22:30.813Z,-1.80
2018-02-23T03:24:58.959Z,-1.90
2018-02-23T03:27:27.110Z,-1.90
2018-02-23T03:29:56.055Z,-2.00
2018-02-23T03:32:24.203Z,-2.00
2018-02-23T03:34:52.345Z,-2.00
2018-02-23T03:37:21.286Z,-2.00
2018-02-23T03:39:49.435Z,-2.10
2018-02-23T03:42:17.578Z,-2.00
2018-02-23T03:44:45.759Z,-2.10
2018-02-23T03:47:14.674Z,-2.10
2018-02-23T03:49:42.813Z,-2.10
2018-02-23T03:52:11.053Z,-2.10
2018-02-23T03:54:39.222Z,-2.10
2018-02-23T03:57:07.386Z,-2.20
2018-02-23T03:59:35.551Z,-2.20
2018-02-23T04:02:03.723Z,-2.20
2018-02-23T04:04:31.866Z,-2.20
2018-02-23T04:07:00.784Z,-2.30
2018-02-23T04:09:28.959Z,-2.30
2018-02-23T04:11:57.443Z,-2.30
2018-02-23T04:14:25.604Z,-2.30
2018-02-23T04:16:53.794Z,-2.20
2018-02-23T04:19:21.937Z,-2.20
2018-02-23T04:21:50.077Z,-2.10
2018-02-23T04:24:18.234Z,-2.10
2018-02-23T04:26:46.374Z,-2.00
2018-02-23T04:29:14.546Z,-2.00
2018-02-23T04:31:42.689Z,-2.00
2018-02-23T04:34:11.598Z,-2.00
2018-02-23T04:36:39.758Z,-2.00
2018-02-23T04:39:07.914Z,-2.00
2018-02-23T04:41:36.826Z,-2.10
2018-02-23T04:44:04.998Z,-2.10
2018-02-23T04:46:33.151Z,-2.10
2018-02-23T04:49:02.066Z,-2.20
2018-02-23T04:51:30.251Z,-2.20
2018-02-23T04:53:58.394Z,-2.20
2018-02-23T04:56:27.306Z,-2.30
2018-02-23T04:58:55.477Z,-2.30
2018-02-23T05:01:24.041Z,-2.40
2018-02-23T05:03:52.953Z,-2.50
2018-02-23T05:06:21.114Z,-2.50
2018-02-23T05:08:49.282Z,-2.50
2018-02-23T05:11:17.431Z,-2.60
2018-02-23T05:13:45.573Z,-2.60
2018-02-23T05:16:13.731Z,-2.70
2018-02-23T05:18:41.900Z,-2.80
2018-02-23T05:21:10.050Z,-2.90
2018-02-23T05:23:38.190Z,-2.90
2018-02-23T05:26:06.358Z,-2.90
2018-02-23T05:28:34.503Z,-3.00
2018-02-23T05:31:02.654Z,-3.00
2018-02-23T05:33:30.846Z,-3.10
2018-02-23T05:35:59.015Z,-3.10
2018-02-23T05:38:27.206Z,-3.10
2018-02-23T05:40:55.545Z,-3.10
2018-02-23T05:43:23.695Z,-3.10
2018-02-23T05:45:52.638Z,-3.20
2018-02-23T05:48:20.783Z,-3.20
2018-02-23T05:50:48.960Z,-3.20
2018-02-23T05:53:17.127Z,-3.20
2018-02-23T05:55:45.287Z,-3.20
2018-02-23T05:58:13.430Z,-3.20
2018-02-23T06:00:41.613Z,-3.30
2018-02-23T06:03:10.524Z,-3.30
2018-02-23T06:05:38.666Z,-3.30
2018-02-23T06:08:06.842Z,-3.40
2018-02-23T06:10:34.994Z,-3.40
2018-02-23T06:13:03.142Z,-3.50
2018-02-23T06:15:36.964Z,-3.50
2018-02-23T06:18:07.466Z,-3.50
2018-02-23T06:20:35.619Z,-3.50
2018-02-23T06:23:03.925Z,-3.50
2018-02-23T06:25:32.090Z,-3.50
2018-02-23T06:28:00.334Z,-3.40
2018-02-23T06:30:29.671Z,-3.40
2018-02-23T06:32:57.810Z,-3.40
2018-02-23T06:35:25.954Z,-3.40
2018-02-23T06:37:54.119Z,-3.40
2018-02-23T06:40:22.333Z,-3.30
2018-02-23T06:42:50.486Z,-3.30
2018-02-23T06:45:22.095Z,-3.30
2018-02-23T06:47:50.246Z,-3.30
2018-02-23T06:50:18.390Z,-3.20
2018-02-23T06:52:47.334Z,-3.20
2018-02-23T06:55:15.484Z,-3.20
2018-02-23T06:57:43.742Z,-3.20
2018-02-23T07:00:12.686Z,-3.20
2018-02-23T07:02:40.842Z,-3.10
2018-02-23T07:05:09.102Z,-3.10
2018-02-23T07:07:37.262Z,-3.10
2018-02-23T07:10:05.426Z,-3.10
2018-02-23T07:12:33.574Z,-3.10
2018-02-23T07:15:02.507Z,-2.90
2018-02-23T07:17:30.650Z,-2.90
2018-02-23T07:19:59.586Z,-2.80
2018-02-23T07:22:27.764Z,-2.80
2018-02-23T07:24:55.915Z,-2.80
2018-02-23T07:27:24.057Z,-2.80
2018-02-23T07:29:52.993Z,-2.80
2018-02-23T07:32:21.129Z,-2.80
2018-02-23T07:34:49.342Z,-2.80
2018-02-23T07:37:17.487Z,-2.70
2018-02-23T07:39:45.635Z,-2.60
2018-02-23T07:42:14.570Z,-2.50
2018-02-23T07:44:42.722Z,-2.50
2018-02-23T07:47:10.874Z,-2.40
2018-02-23T07:49:39.813Z,-2.20
2018-02-23T07:52:07.962Z,-2.20
2018-02-23T07:54:36.106Z,-2.10
2018-02-23T07:57:05.050Z,-1.90
2018-02-23T07:59:33.203Z,-2.00
2018-02-23T08:02:01.371Z,-1.90
2018-02-23T08:04:29.551Z,-1.70
2018-02-23T08:06:57.696Z,-1.50
2018-02-23T08:09:25.861Z,-1.40
2018-02-23T08:11:54.774Z,-1.20
2018-02-23T08:14:22.920Z,-1.20
2018-02-23T08:16:51.857Z,-1.00
2018-02-23T08:19:19.998Z,-1.00
2018-02-23T08:21:48.148Z,-1.00
2018-02-23T08:24:17.082Z,-0.90
2018-02-23T08:26:45.246Z,-0.90
2018-02-23T08:29:13.406Z,-0.80
2018-02-23T08:31:41.943Z,-0.70
2018-02-23T08:34:10.095Z,-0.60
2018-02-23T08:36:38.238Z,-0.50
2018-02-23T08:39:06.405Z,-0.30
2018-02-23T08:41:34.555Z,-0.30
2018-02-23T08:44:03.470Z,-0.10
2018-02-23T08:46:31.631Z,-0.10
2018-02-23T08:49:00.537Z,0.20
2018-02-23T08:51:28.883Z,0.20
2018-02-23T08:53:57.898Z,0.40
2018-02-23T08:56:26.094Z,0.40
2018-02-23T08:58:54.270Z,0.50
2018-02-23T09:01:22.431Z,0.50
2018-02-23T09:03:51.907Z,0.70
2018-02-23T09:06:20.822Z,1.10
2018-02-23T09:08:49.371Z,1.10
2018-02-23T09:11:17.532Z,1.30
2018-02-23T09:13:45.766Z,1.50
2018-02-23T09:16:14.660Z,1.60
2018-02-23T09:18:42.842Z,1.70
2018-02-23T09:21:11.005Z,1.80
2018-02-23T09:23:39.174Z,1.90
2018-02-23T09:26:07.343Z,1.90
2018-02-23T09:28:35.735Z,2.10
2018-02-23T09:31:03.894Z,2.20
2018-02-23T09:33:49.894Z,2.40
2018-02-23T09:36:18.062Z,2.50
2018-02-23T09:38:46.205Z,2.60
2018-02-23T09:41:15.133Z,2.90
2018-02-23T09:43:43.317Z,2.90
2018-02-23T09:46:11.458Z,3.10
2018-02-23T09:48:39.639Z,3.30
2018-02-23T09:51:07.769Z,3.40
2018-02-23T09:53:36.673Z,3.80
2018-02-23T09:56:04.834Z,3.70
2018-02-23T09:58:33.739Z,3.70
2018-02-23T10:01:01.887Z,3.70
2018-02-23T10:03:30.111Z,3.80
2018-02-23T10:05:58.291Z,3.90
2018-02-23T10:08:26.463Z,4.10
2018-02-23T10:10:54.605Z,3.90
2018-02-23T10:13:22.752Z,4.00
2018-02-23T10:15:51.685Z,4.20
2018-02-23T10:18:19.822Z,4.20
2018-02-23T10:20:48.717Z,4.50
2018-02-23T10:23:17.662Z,4.80
2018-02-23T10:25:45.797Z,4.70
2018-02-23T10:28:14.238Z,5.00
2018-02-23T10:30:42.397Z,5.10
2018-02-23T10:33:10.531Z,5.10
2018-02-23T10:35:38.737Z,5.20
2018-02-23T10:38:06.946Z,5.20
2018-02-23T10:40:35.107Z,5.40
2018-02-23T10:43:03.247Z,5.70
2018-02-23T10:45:31.421Z,5.80
2018-02-23T10:47:59.562Z,6.10
2018-02-23T10:50:27.702Z,6.40
2018-02-23T10:52:56.626Z,6.90
2018-02-23T10:55:25.019Z,6.90
2018-02-23T10:57:53.217Z,7.00
2018-02-23T11:00:21.363Z,6.90
2018-02-23T11:02:49.501Z,7.00
2018-02-23T11:05:18.942Z,7.60
2018-02-23T11:07:47.084Z,7.60
2018-02-23T11:10:15.237Z,7.60
2018-02-23T11:12:44.174Z,8.00
2018-02-23T11:15:12.318Z,8.00
2018-02-23T11:17:40.466Z,8.20
2018-02-23T11:20:09.970Z,8.80
2018-02-23T11:22:38.102Z,8.70
2018-02-23T11:25:06.256Z,8.60
2018-02-23T11:27:34.413Z,8.50
2018-02-23T11:30:02.558Z,8.80
2018-02-23T11:32:30.765Z,9.20
2018-02-23T11:34:58.964Z,9.20
2018-02-23T11:37:27.926Z,9.50
2018-02-23T11:39:56.071Z,10.10
2018-02-23T11:42:24.218Z,10.40
2018-02-23T11:44:52.453Z,11.00
2018-02-23T11:47:20.602Z,11.10
2018-02-23T11:49:49.510Z,11.80
2018-02-23T11:52:17.685Z,11.80
2018-02-23T11:54:45.847Z,12.20
2018-02-23T11:57:14.758Z,13.00
2018-02-23T11:59:42.955Z,13.00
2018-02-23T12:02:11.097Z,12.70
2018-02-23T12:04:39.283Z,12.50
2018-02-23T12:07:07.563Z,12.90
2018-02-23T12:09:35.694Z,13.60
2018-02-23T12:12:04.618Z,14.50
2018-02-23T12:14:32.801Z,14.50
2018-02-23T12:17:00.938Z,15.30
2018-02-23T12:19:29.851Z,15.90
2018-02-23T12:21:58.863Z,15.90
2018-02-23T12:24:27.010Z,16.40
2018-02-23T12:26:55.154Z,16.70
2018-02-23T12:29:24.741Z,17.90
2018-02-23T12:31:52.975Z,17.90
2018-02-23T12:34:21.186Z,18.10
2018-02-23T12:36:49.478Z,18.30
2018-02-23T12:39:18.385Z,18.30
2018-02-23T12:41:48.139Z,18.60
2018-02-23T12:44:17.067Z,18.60
2018-02-23T12:46:45.300Z,19.20
2018-02-23T12:49:13.454Z,19.80
2018-02-23T12:51:41.589Z,20.40
